首页
METAR-TAF:

METAR-TAF

机场 :

施韦比施哈尔, 德国

纬度: 49-07-06N, 经度: 9-47-02E, 海拔: 398米

当前天气观测

该预报发布于26分钟前的14:20 UTC
风速3节,风向多变
温度 28°C
湿度 37%
气压 1024 hPa
能见度10公里或以上
1500米以下无云,无积雨云

METAR: EDTY 221420Z VRB03KT CAVOK 28/12 Q1024

时间: 16:46 (14:46 UTC)

预报

该预报发布于46分钟前的14:00 UTC
预报有效从22日的 15点(UTC)到 22日的 24点(UTC)
风速8节,风向北转西北
能见度10公里或以上
1500米以下无云,无积雨云
成为
从 22日的 18点(UTC)到 22日的 20点(UTC)
风速3节,风向多变

TAF: EDTY 221400Z 2215/2224 33008KT CAVOK BECMG 2218/2220 VRB03KT

超过4000个机场的气象观测和天气预报(METAR&TAF报告)。

可查询的气象台以黄色和红色小点在地图上表示。

将鼠标移到小点上方,可查看气象台名称。

然后点击查看天气观测和预报。

如需切换地图:点击带黑十字的绿色按钮放大地图;点击带横线的绿色按钮缩小地图;或者点击绿色箭头查看邻近地区的地图。


METAR-TAF: